Detall de PIREP

Printer-friendly versionPDF version

[2013/04/06 08:49:00]
Flight IATA:CT3101
Pilot Number:012
Company ICAO:CAT
Aircraft Type:MD11/E
PAX:254
Aircraft Registration:PAX
Departing Airport: LEBL
Destination Airport: LIEA
Alternate Airport:LIEO
Online: VATSIM
Route:VERSO UM24 LAPIT UN725 ORKUM UM603 ELSAG
Flight Level:F340
No Slew and time accel
No pause
Crash detect
Detect pilot in Cockpit between each 30 and 45 minutes
08:49 Zero fuel Weight: 377797 Lbs, Fuel Weight: 30253 Lbs
08:49 VATSIM:LEBL 060830Z 33011KT 260V350 9999 FEW020 09/02 Q1010 NOSIG
08:49 VATSIM:LIEA 060820Z VRB02KT 9999 SCT040 13/11 Q1005
08:49 VOICE CATALONIAN
08:49 Parking Brakes off
08:56 Take-off
08:56 Take off Weight: 406909 Lbs
08:56 Wind: 310º @ 011 Knots Heading: 246º
08:56 POS N41º 17´ 15´´ E002º 05´ 23´´
08:56 Gear Up: 181 Knots
08:56 Flaps:3 at 181 Knots
08:56 Flaps:2 at 218 Knots
08:56 Flaps:3 at 224 Knots
08:56 Flaps:2 at 227 Knots
08:56 Flaps:1 at 229 Knots
08:57 Flaps:0 at 245 Knots
08:57 Flaps:1 at 186 Knots
08:57 Flaps:2 at 182 Knots
08:57 Flaps:3 at 171 Knots
08:57 Flaps:1 at 168 Knots
08:57 Flaps:3 at 164 Knots
08:58 Flaps:2 at 187 Knots
08:58 Flaps:3 at 189 Knots
08:58 Flaps:2 at 190 Knots
08:58 Flaps:1 at 192 Knots
08:58 Flaps:0 at 195 Knots
08:59 Flaps:1 at 196 Knots
08:59 Flaps:2 at 194 Knots
08:59 Flaps:3 at 183 Knots
08:59 Flaps:1 at 179 Knots
08:59 Flaps:3 at 170 Knots
09:00 Flaps:2 at 213 Knots
09:00 Flaps:1 at 215 Knots
09:00 Flaps:3 at 217 Knots
09:00 Flaps:2 at 218 Knots
09:00 Flaps:1 at 219 Knots
09:01 Flaps:0 at 225 Knots
09:09 TOC
09:09 Fuel Weight: 20415 Lb
09:11 Wind:274º@022 Knots Heading: 093º Ground Speed: 501 Knots Altitude 33979 ft
09:23 TOD
09:23 Fuel Weight: 17047 Lb
09:26 Wind:222º@046 Knots Heading: 103º Ground Speed: 465 Knots Altitude 28825 ft
09:41 Wind:147º@020 Knots Heading: 095º Ground Speed: 230 Knots Altitude 5364 ft
09:41 Flaps:1 at 212 Knots
09:41 Flaps:2 at 211 Knots
09:41 Flaps:3 at 205 Knots
09:41 Flaps:4 at 204 Knots
09:41 Flaps:3 at 201 Knots
09:41 Flaps:4 at 200 Knots
09:41 Flaps:5 at 196 Knots
09:41 Flaps:6 at 193 Knots
09:42 Gear Down: 153 Knots
09:42 Flaps:7 at 151 Knots
09:46 TouchDown:Rate -361 ft/min Speed: 142 Knots
09:46 VATSIM:LIEA 060920Z VRB01KT 9999 SCT040 14/11 Q1005
09:46 Land
09:46 Wind:009º@002 Knots
09:46 Heading: 203º
09:46 Flight Duration: 00:50
09:46 Landing Weight: 391279 Lbs
09:46 POS N40º 37´ 51´´ E008º 17´ 24´´
09:49 Parking brakes on
09:49 Block to Block Duration: 01:00
09:49 Final Fuel: 13253 Lbls
09:49 Spent Fuel: 16999 Lbls
09:49 Flight Length: 329 NM
09:49 TOD Land Length: 129 NM

Exportar CSV

Powered by Drupal - Modified by Danger4k